Time;durP1;ratioP1;P1;durP2;ratioP2;P2;SDS_P1;SDS_P2;PMS_P1;PMS_P2;Temp;Humidity;BMP_temperature;BMP_pressure;BME280_temperature;BME280_humidity;BME280_pressure;Samples;Min_cycle;Max_cycle;Signal;HPM_P1;HPM_P2
2022/07/17 00:02:19;;;;;;;;;4.33;4.33;;;;;25.29;35.06;102186.94;5017220;28;45504;-68
2022/07/17 00:04:44;;;;;;;;;5.00;4.00;;;;;25.32;35.04;102194.88;5022974;28;45555;-68
2022/07/17 00:07:09;;;;;;;;;3.33;3.33;;;;;25.32;34.48;102184.59;5015400;28;45545;-67
2022/07/17 00:09:35;;;;;;;;;3.33;2.00;;;;;25.21;34.68;102188.00;5020650;28;45449;-68
2022/07/17 00:12:00;;;;;;;;;3.33;3.33;;;;;25.12;35.40;102183.72;5016893;28;45621;-68
2022/07/17 00:14:25;;;;;;;;;7.00;7.00;;;;;25.03;35.55;102182.19;5021713;28;45425;-68
2022/07/17 00:16:53;;;;;;;;;4.00;4.00;;;;;24.87;35.97;102163.03;5018757;28;47036;-68
2022/07/17 00:19:18;;;;;;;;;5.33;5.33;;;;;24.98;35.81;102181.94;5019528;28;45408;-68
2022/07/17 00:21:43;;;;;;;;;3.67;3.67;;;;;24.90;36.32;102179.31;5019477;28;45664;-68
2022/07/17 00:24:10;;;;;;;;;4.00;4.00;;;;;24.78;35.90;102174.34;5023150;28;45584;-68
2022/07/17 00:26:35;;;;;;;;;4.67;4.67;;;;;24.77;36.43;102175.41;5017095;28;46276;-69
2022/07/17 00:29:03;;;;;;;;;5.33;5.33;;;;;24.68;36.16;102176.66;5038516;28;45358;-68
2022/07/17 00:31:28;;;;;;;;;6.67;4.33;;;;;24.68;36.62;102175.81;5016106;28;45177;-68
2022/07/17 00:33:53;;;;;;;;;4.67;4.00;;;;;24.67;36.38;102185.22;5022205;28;45572;-69
2022/07/17 00:36:19;;;;;;;;;6.67;6.00;;;;;24.60;36.70;102182.41;5014377;28;46760;-68
2022/07/17 00:38:44;;;;;;;;;4.00;4.00;;;;;24.60;37.15;102185.19;5033007;28;45194;-68
2022/07/17 00:41:09;;;;;;;;;5.33;5.00;;;;;24.54;36.92;102165.69;5016786;28;45450;-68
2022/07/17 00:43:35;;;;;;;;;5.33;5.33;;;;;24.59;36.61;102177.03;5019731;28;45477;-69
2022/07/17 00:46:02;;;;;;;;;6.00;5.00;;;;;24.50;37.04;102176.34;5020569;28;46154;-68
2022/07/17 00:48:29;;;;;;;;;5.00;5.00;;;;;24.41;36.61;102175.66;5017169;28;45373;-68
2022/07/17 00:50:54;;;;;;;;;5.00;5.00;;;;;24.44;36.68;102180.81;5029089;28;45472;-68
2022/07/17 00:53:20;;;;;;;;;5.67;5.00;;;;;24.41;37.33;102185.91;5016178;28;45689;-68
2022/07/17 00:55:48;;;;;;;;;5.00;5.00;;;;;24.39;37.17;102188.06;5018543;28;45445;-68
2022/07/17 00:58:22;;;;;;;;;3.67;3.67;;;;;24.36;37.30;102189.31;5009954;28;45362;-68
2022/07/17 01:00:51;;;;;;;;;6.67;5.33;;;;;24.32;37.70;102195.50;5014492;28;45499;-68
2022/07/17 01:03:17;;;;;;;;;5.67;4.00;;;;;24.19;38.01;102187.00;5029073;28;45426;-69
2022/07/17 01:05:43;;;;;;;;;5.33;4.67;;;;;24.17;37.95;102189.16;5017485;28;45546;-68
2022/07/17 01:08:09;;;;;;;;;6.67;5.00;;;;;24.19;37.24;102187.88;5018837;28;45398;-69
2022/07/17 01:10:34;;;;;;;;;4.67;4.67;;;;;24.15;36.77;102186.56;5015133;28;45527;-68
2022/07/17 01:13:00;;;;;;;;;4.00;4.00;;;;;24.10;37.88;102183.56;5017884;28;45664;-68
2022/07/17 01:15:25;;;;;;;;;7.00;7.00;;;;;23.97;38.52;102183.44;5019830;28;45607;-69
2022/07/17 01:17:51;;;;;;;;;5.67;5.67;;;;;24.01;38.17;102188.41;5018119;28;45409;-68
2022/07/17 01:20:17;;;;;;;;;5.00;5.00;;;;;24.01;38.32;102190.31;5019346;28;45403;-68
2022/07/17 01:22:49;;;;;;;;;4.33;4.00;;;;;24.01;38.16;102195.88;5013909;28;45315;-68
2022/07/17 01:25:16;;;;;;;;;4.33;4.00;;;;;23.89;38.68;102192.78;5019367;28;46133;-68
2022/07/17 01:27:42;;;;;;;;;5.00;4.67;;;;;23.91;38.79;102190.66;5028919;28;45439;-68
2022/07/17 01:30:08;;;;;;;;;5.33;5.33;;;;;23.86;38.86;102192.34;5020471;28;45220;-68
2022/07/17 01:32:35;;;;;;;;;6.00;6.00;;;;;23.85;38.95;102194.25;5024478;28;45363;-68
2022/07/17 01:35:02;;;;;;;;;2.67;2.67;;;;;23.74;38.85;102188.41;5019826;28;46700;-68
2022/07/17 01:37:28;;;;;;;;;4.00;4.00;;;;;23.71;39.22;102192.41;5014640;28;45470;-67
2022/07/17 01:39:54;;;;;;;;;4.67;4.67;;;;;23.68;39.13;102190.03;5017478;28;45305;-68
2022/07/17 01:42:20;;;;;;;;;3.67;3.67;;;;;23.65;39.40;102184.91;5014230;28;45321;-68
2022/07/17 01:44:46;;;;;;;;;4.33;4.00;;;;;23.52;40.08;102179.22;5020637;28;45490;-68
2022/07/17 01:47:13;;;;;;;;;4.33;4.33;;;;;23.59;39.71;102194.03;5021302;28;45394;-68
2022/07/17 01:49:43;;;;;;;;;5.00;5.00;;;;;23.55;39.16;102179.69;5021766;28;45249;-68
2022/07/17 01:52:08;;;;;;;;;3.67;3.67;;;;;23.62;39.38;102179.75;5017936;28;45468;-68
2022/07/17 01:54:34;;;;;;;;;5.00;4.00;;;;;23.57;40.09;102176.72;5021879;28;45378;-68
2022/07/17 01:56:59;;;;;;;;;6.00;3.00;;;;;23.53;40.17;102178.16;5012692;28;45390;-69
2022/07/17 01:59:24;;;;;;;;;4.00;4.00;;;;;23.54;39.68;102174.31;5021068;28;47912;-68
2022/07/17 02:01:50;;;;;;;;;5.00;5.00;;;;;23.52;39.39;102179.22;5018447;28;45338;-68
2022/07/17 02:04:15;;;;;;;;;5.00;4.00;;;;;23.56;39.92;102177.75;5023393;28;46353;-67
2022/07/17 02:06:40;;;;;;;;;5.00;5.00;;;;;23.49;40.68;102165.75;5020557;28;45351;-68
2022/07/17 02:09:06;;;;;;;;;4.00;3.67;;;;;23.44;39.95;102171.00;5022446;28;45248;-68
2022/07/17 02:11:31;;;;;;;;;5.00;5.00;;;;;23.43;40.17;102169.28;5020978;28;45423;-68
2022/07/17 02:13:56;;;;;;;;;4.00;4.00;;;;;23.50;39.41;102171.09;5021504;28;45426;-69
2022/07/17 02:16:21;;;;;;;;;5.00;3.67;;;;;23.59;39.32;102175.47;5019950;28;45252;-68
2022/07/17 02:18:47;;;;;;;;;5.33;4.00;;;;;23.61;39.33;102175.25;5021103;28;45189;-68
2022/07/17 02:21:12;;;;;;;;;5.00;3.00;;;;;23.56;39.84;102175.84;5019738;28;45246;-68
2022/07/17 02:23:37;;;;;;;;;3.00;3.00;;;;;23.44;40.21;102158.00;5022071;28;46100;-68
2022/07/17 02:26:03;;;;;;;;;7.33;4.67;;;;;23.47;39.69;102174.22;5016866;28;45336;-68
2022/07/17 02:28:28;;;;;;;;;4.00;4.00;;;;;23.45;39.79;102162.47;5025864;28;45404;-67
2022/07/17 02:30:55;;;;;;;;;4.00;4.00;;;;;23.45;40.12;102169.97;5012606;28;45402;-68
2022/07/17 02:33:20;;;;;;;;;4.67;4.00;;;;;23.42;40.14;102165.66;5025517;28;45558;-67
2022/07/17 02:35:46;;;;;;;;;5.00;4.67;;;;;23.34;40.83;102165.78;5021894;28;45488;-68
2022/07/17 02:38:11;;;;;;;;;3.67;3.00;;;;;23.20;40.37;102156.47;5023319;28;45202;-69
2022/07/17 02:40:36;;;;;;;;;3.33;3.33;;;;;23.25;40.34;102173.38;5018503;28;45257;-69
2022/07/17 02:43:02;;;;;;;;;3.67;3.67;;;;;23.26;39.83;102164.00;5022078;28;45611;-67
2022/07/17 02:45:27;;;;;;;;;4.00;4.00;;;;;23.25;40.35;102165.06;5006570;28;46223;-67
2022/07/17 02:47:54;;;;;;;;;3.00;3.00;;;;;23.25;40.30;102165.06;5020450;28;45941;-67
2022/07/17 02:50:20;;;;;;;;;5.33;5.33;;;;;23.26;40.62;102164.00;5022511;28;45302;-67
2022/07/17 02:52:46;;;;;;;;;4.33;4.33;;;;;23.06;41.16;102149.06;5016760;28;46564;-67
2022/07/17 02:55:12;;;;;;;;;5.00;5.00;;;;;23.12;41.39;102150.19;5014765;28;45437;-67
2022/07/17 02:57:38;;;;;;;;;4.00;4.00;;;;;23.05;41.65;102165.91;5015339;28;45311;-67
2022/07/17 03:00:09;;;;;;;;;3.33;3.00;;;;;23.02;41.35;102150.50;5018392;28;45300;-69
2022/07/17 03:02:35;;;;;;;;;11.33;5.33;;;;;22.97;41.74;102155.78;5018111;28;45390;-69
2022/07/17 03:05:00;;;;;;;;;6.00;6.00;;;;;22.89;41.94;102165.06;5016687;28;45437;-68
2022/07/17 03:07:26;;;;;;;;;6.00;5.00;;;;;22.92;41.81;102152.75;5019961;28;45345;-68
2022/07/17 03:09:51;;;;;;;;;4.00;4.00;;;;;22.91;41.63;102151.03;5019249;28;45360;-68
2022/07/17 03:12:16;;;;;;;;;5.00;4.00;;;;;22.87;41.83;102158.88;5021203;28;46773;-68
2022/07/17 03:14:42;;;;;;;;;5.33;5.33;;;;;22.85;42.00;102160.13;5023987;28;45421;-68
2022/07/17 03:17:07;;;;;;;;;4.67;4.67;;;;;22.82;42.25;102160.50;5021978;28;45330;-68
2022/07/17 03:19:33;;;;;;;;;4.67;4.67;;;;;22.83;42.01;102157.53;5024170;28;45505;-68
2022/07/17 03:21:58;;;;;;;;;3.67;3.67;;;;;22.81;42.11;102151.34;5035984;28;47035;-68
2022/07/17 03:24:23;;;;;;;;;4.33;4.33;;;;;22.76;42.10;102155.75;5024669;28;45290;-67
2022/07/17 03:26:49;;;;;;;;;4.00;4.00;;;;;22.87;41.32;102158.88;5018763;28;45229;-68
2022/07/17 03:29:17;;;;;;;;;8.67;5.67;;;;;22.83;42.10;102165.00;5024859;28;45379;-68
2022/07/17 03:31:43;;;;;;;;;6.33;5.33;;;;;22.83;41.89;102167.78;5016738;28;45508;-68
2022/07/17 03:34:08;;;;;;;;;3.67;3.67;;;;;22.76;41.54;102172.38;5024509;28;45358;-68
2022/07/17 03:36:33;;;;;;;;;2.67;2.67;;;;;22.74;42.11;102168.94;5018436;28;45370;-68
2022/07/17 03:38:59;;;;;;;;;5.00;3.00;;;;;22.61;42.82;102172.38;5023768;28;45457;-68
2022/07/17 03:41:24;;;;;;;;;4.00;3.00;;;;;22.48;43.20;102161.97;5017844;28;45560;-68
2022/07/17 03:43:49;;;;;;;;;5.00;5.00;;;;;22.45;43.59;102178.09;5016325;28;45400;-68
2022/07/17 03:46:15;;;;;;;;;4.00;3.00;;;;;22.43;43.64;102185.72;5015139;28;45279;-68
2022/07/17 03:48:40;;;;;;;;;4.67;4.67;;;;;22.39;43.06;102173.34;5024817;28;45357;-68
2022/07/17 03:51:05;;;;;;;;;3.33;3.33;;;;;22.36;44.00;102193.94;5015147;28;46612;-68
2022/07/17 03:53:31;;;;;;;;;5.00;4.00;;;;;22.28;43.56;102188.50;5022723;28;45315;-68
2022/07/17 03:55:56;;;;;;;;;5.00;5.00;;;;;22.23;43.93;102191.00;5016051;28;45545;-68
2022/07/17 03:58:21;;;;;;;;;5.67;4.00;;;;;22.26;43.94;102193.41;5020058;28;45378;-68
2022/07/17 04:00:46;;;;;;;;;5.00;4.00;;;;;22.24;44.18;102195.47;5016401;28;48507;-68
2022/07/17 04:03:12;;;;;;;;;5.00;5.00;;;;;22.24;44.31;102187.19;5018530;28;45391;-68
2022/07/17 04:05:37;;;;;;;;;5.33;5.00;;;;;22.24;44.37;102184.41;5019805;28;45256;-68
2022/07/17 04:08:03;;;;;;;;;6.00;6.00;;;;;22.23;43.91;102182.69;5016822;28;45291;-67
2022/07/17 04:10:28;;;;;;;;;6.00;6.00;;;;;22.13;44.34;102179.34;5011978;28;46453;-68
2022/07/17 04:12:53;;;;;;;;;8.67;7.33;;;;;22.12;44.28;102175.72;5014366;28;45306;-68
2022/07/17 04:15:48;;;;;;;;;9.00;7.67;;;;;22.09;44.61;102175.22;5016823;28;45305;-68
2022/07/17 04:18:04;;;;;;;;;4.00;4.00;;;;;22.06;44.56;102181.16;5006358;28;45540;-68
2022/07/17 04:20:30;;;;;;;;;7.00;7.00;;;;;22.08;45.87;102184.59;5019821;28;45481;-68
2022/07/17 04:22:55;;;;;;;;;9.00;7.00;;;;;22.03;45.37;102182.41;5015214;28;45255;-68
2022/07/17 04:25:20;;;;;;;;;5.33;5.33;;;;;22.05;44.91;102201.59;5019523;28;45403;-68
2022/07/17 04:27:45;;;;;;;;;7.33;4.67;;;;;22.06;44.92;102197.78;5016301;28;45434;-68
2022/07/17 04:30:11;;;;;;;;;5.67;5.67;;;;;22.03;45.10;102215.59;5020597;28;46347;-68
2022/07/17 04:32:36;;;;;;;;;4.00;4.00;;;;;22.00;45.04;102215.09;5032331;28;45419;-69
2022/07/17 04:35:02;;;;;;;;;5.33;5.33;;;;;22.01;45.47;102225.13;5021124;28;45507;-70
2022/07/17 04:37:27;;;;;;;;;7.00;3.00;;;;;22.04;44.85;102235.84;5019179;28;45662;-69
2022/07/17 04:39:53;;;;;;;;;5.67;5.67;;;;;22.09;44.36;102219.53;5020653;28;46621;-69
2022/07/17 04:42:18;;;;;;;;;4.67;4.00;;;;;22.13;44.79;102229.19;5018956;28;45495;-68
2022/07/17 04:44:43;;;;;;;;;4.00;4.00;;;;;22.24;44.13;102222.31;5021021;28;45338;-68
2022/07/17 04:47:09;;;;;;;;;5.00;4.00;;;;;22.28;44.46;102229.22;5013887;28;45482;-68
2022/07/17 04:49:34;;;;;;;;;7.00;5.00;;;;;22.23;44.30;102232.53;5023062;28;47126;-68
2022/07/17 04:51:59;;;;;;;;;7.67;7.00;;;;;22.12;44.29;102231.09;5015710;28;45407;-68
2022/07/17 04:54:25;;;;;;;;;5.00;5.00;;;;;22.13;44.73;102243.03;5024533;28;45399;-69
2022/07/17 04:56:50;;;;;;;;;7.00;6.67;;;;;22.11;44.75;102234.03;5014208;28;45457;-69
2022/07/17 04:59:15;;;;;;;;;5.67;5.67;;;;;22.24;44.65;102238.91;5019171;28;46278;-68
2022/07/17 05:01:41;;;;;;;;;6.67;5.00;;;;;22.35;44.51;102246.78;5017408;28;45426;-68
2022/07/17 05:04:06;;;;;;;;;5.00;5.00;;;;;22.30;44.09;102243.69;5017406;28;45314;-71
2022/07/17 05:06:31;;;;;;;;;6.00;6.00;;;;;22.37;43.94;102244.66;5015892;28;45344;-68
2022/07/17 05:08:57;;;;;;;;;5.67;5.00;;;;;23.13;42.21;102244.28;5012843;28;46406;-67
2022/07/17 05:11:22;;;;;;;;;3.33;3.33;;;;;23.19;41.80;102237.94;5013352;28;45431;-69
2022/07/17 05:13:47;;;;;;;;;4.00;4.00;;;;;23.12;42.35;102250.88;5012730;28;45398;-69
2022/07/17 05:16:13;;;;;;;;;4.00;4.00;;;;;23.07;42.00;102241.41;5017027;28;45364;-69
2022/07/17 05:18:38;;;;;;;;;4.00;4.00;;;;;23.04;41.95;102239.88;5007477;28;46295;-69
2022/07/17 05:21:04;;;;;;;;;5.00;4.00;;;;;23.00;42.45;102241.34;5017642;28;45327;-69
2022/07/17 05:23:29;;;;;;;;;3.00;3.00;;;;;22.99;42.58;102233.22;5014714;28;45253;-70
2022/07/17 05:25:54;;;;;;;;;3.67;3.00;;;;;23.21;42.28;102252.47;5010334;28;45422;-68
2022/07/17 05:28:19;;;;;;;;;4.33;4.00;;;;;23.39;41.65;102251.16;5014130;28;46591;-70
2022/07/17 05:30:45;;;;;;;;;4.67;4.67;;;;;23.49;40.84;102252.59;5004378;28;45216;-69
2022/07/17 05:33:10;;;;;;;;;4.67;4.67;;;;;24.28;40.07;102249.72;5019929;28;45482;-69
2022/07/17 05:35:35;;;;;;;;;4.00;4.00;;;;;25.49;37.58;102251.84;5020215;28;45378;-68
2022/07/17 05:38:01;;;;;;;;;3.00;3.00;;;;;25.28;37.49;102244.50;5017624;28;46698;-69
2022/07/17 05:40:26;;;;;;;;;4.00;4.00;;;;;24.90;37.29;102235.81;5017751;28;45488;-67
2022/07/17 05:42:52;;;;;;;;;3.00;3.00;;;;;24.60;38.36;102246.31;5017643;28;45244;-69
2022/07/17 05:45:17;;;;;;;;;4.00;4.00;;;;;24.54;38.19;102246.28;5021174;28;45601;-68
2022/07/17 05:47:42;;;;;;;;;4.00;4.00;;;;;24.38;38.89;102241.91;5014382;28;45497;-68
2022/07/17 05:50:08;;;;;;;;;5.00;4.00;;;;;24.27;38.93;102242.44;5019203;28;49066;-68
2022/07/17 05:52:33;;;;;;;;;3.67;3.67;;;;;24.21;38.73;102246.03;5016083;28;45379;-69
2022/07/17 05:54:58;;;;;;;;;3.33;3.00;;;;;24.07;39.27;102250.59;5020504;28;45584;-69
2022/07/17 05:57:24;;;;;;;;;3.00;3.00;;;;;23.96;39.93;102242.81;5016530;28;46469;-69
2022/07/17 05:59:49;;;;;;;;;5.33;4.33;;;;;23.91;40.10;102248.97;5018045;28;47203;-69
2022/07/17 06:02:14;;;;;;;;;13.33;9.33;;;;;23.86;39.49;102243.16;5016029;28;45447;-69
2022/07/17 06:04:40;;;;;;;;;4.00;4.00;;;;;23.77;39.99;102258.22;5016580;28;45334;-69
2022/07/17 06:07:05;;;;;;;;;4.00;3.00;;;;;23.83;39.82;102259.34;5015451;28;45602;-69
2022/07/17 06:09:31;;;;;;;;;6.00;4.33;;;;;23.98;40.02;102258.19;5008010;28;45316;-69
2022/07/17 06:11:57;;;;;;;;;5.33;4.00;;;;;24.17;39.70;102261.38;5013217;28;45530;-69
2022/07/17 06:14:24;;;;;;;;;3.67;3.67;;;;;24.40;38.99;102257.28;5022287;28;45315;-69
2022/07/17 06:16:50;;;;;;;;;4.67;4.67;;;;;24.51;38.30;102252.22;5019081;28;45551;-69
2022/07/17 06:19:15;;;;;;;;;3.33;3.33;;;;;24.58;38.42;102248.44;5021968;28;45384;-69
2022/07/17 06:21:40;;;;;;;;;3.00;3.00;;;;;24.56;38.47;102250.56;5010259;28;45320;-68
2022/07/17 06:24:06;;;;;;;;;4.00;3.00;;;;;24.50;38.35;102256.94;5020031;28;45241;-67
2022/07/17 06:26:31;;;;;;;;;3.00;3.00;;;;;24.68;38.86;102267.53;5017108;28;48342;-69
2022/07/17 06:28:56;;;;;;;;;4.00;4.00;;;;;24.86;37.98;102258.63;5021342;28;45507;-68
2022/07/17 06:31:22;;;;;;;;;3.33;3.33;;;;;24.92;38.35;102249.50;5033450;28;45380;-66
2022/07/17 06:33:48;;;;;;;;;3.00;3.00;;;;;24.71;38.50;102251.28;5017595;28;45617;-67
2022/07/17 06:36:14;;;;;;;;;2.67;2.67;;;;;24.76;38.05;102243.22;5016838;28;45391;-68
2022/07/17 06:38:39;;;;;;;;;6.00;4.00;;;;;24.90;37.92;102237.72;5018401;28;45239;-68
2022/07/17 06:41:04;;;;;;;;;2.33;2.33;;;;;24.94;37.99;102239.88;5016696;28;45407;-69
2022/07/17 06:43:30;;;;;;;;;4.00;3.00;;;;;25.01;37.87;102237.13;5016386;28;45414;-69
2022/07/17 06:45:55;;;;;;;;;3.67;3.67;;;;;25.07;38.05;102244.63;5011892;28;47514;-70
2022/07/17 06:48:22;;;;;;;;;2.67;2.67;;;;;25.28;37.37;102243.66;5020222;28;45358;-69
2022/07/17 06:50:47;;;;;;;;;6.00;4.33;;;;;25.28;37.52;102241.72;5015541;28;45405;-67
2022/07/17 06:53:13;;;;;;;;;3.00;2.67;;;;;25.42;37.20;102232.38;5022947;28;45494;-68
2022/07/17 06:55:39;;;;;;;;;4.00;4.00;;;;;25.48;37.26;102239.00;5017656;28;45330;-67
2022/07/17 06:58:04;;;;;;;;;5.00;4.00;;;;;25.61;36.86;102238.19;5010586;28;45744;-68
2022/07/17 07:00:30;;;;;;;;;5.00;3.67;;;;;25.69;37.25;102235.22;5020956;28;45249;-69
2022/07/17 07:02:55;;;;;;;;;4.00;4.00;;;;;25.85;36.44;102237.59;5023390;28;45580;-69
2022/07/17 07:05:21;;;;;;;;;3.00;3.00;;;;;25.99;36.51;102242.09;5012928;28;48242;-69
2022/07/17 07:07:46;;;;;;;;;6.00;4.67;;;;;26.06;36.16;102231.81;5019078;28;45394;-68
2022/07/17 07:10:12;;;;;;;;;3.00;3.00;;;;;26.20;35.84;102233.50;5020054;28;45494;-69
2022/07/17 07:12:37;;;;;;;;;4.67;3.67;;;;;26.17;35.51;102241.44;5016211;28;45354;-69
2022/07/17 07:15:04;;;;;;;;;3.00;3.00;;;;;26.08;35.95;102243.56;5026051;28;46992;-68
2022/07/17 07:17:31;;;;;;;;;2.67;2.67;;;;;26.23;35.43;102244.22;5015772;28;45317;-68
2022/07/17 07:19:57;;;;;;;;;3.00;3.00;;;;;26.46;35.53;102246.56;5011203;28;45335;-69
2022/07/17 07:22:22;;;;;;;;;3.67;3.67;;;;;26.59;34.77;102243.75;5023808;28;45643;-71
2022/07/17 07:24:48;;;;;;;;;3.33;3.00;;;;;26.49;34.92;102242.50;5023403;28;46495;-68
2022/07/17 07:27:13;;;;;;;;;5.00;3.00;;;;;26.72;34.26;102242.88;5015837;28;45394;-67
2022/07/17 07:29:38;;;;;;;;;3.67;3.67;;;;;26.92;34.53;102240.91;5024293;28;45364;-69
2022/07/17 07:32:04;;;;;;;;;4.67;4.33;;;;;26.96;33.48;102232.94;5015298;28;45406;-68
2022/07/17 07:34:29;;;;;;;;;4.67;3.00;;;;;26.98;33.37;102237.22;5023274;28;45824;-69
2022/07/17 07:36:55;;;;;;;;;7.33;4.67;;;;;27.09;33.37;102236.56;5015014;28;45459;-69
2022/07/17 07:39:20;;;;;;;;;4.00;4.00;;;;;27.42;32.87;102238.28;5019527;28;45330;-68
2022/07/17 07:41:46;;;;;;;;;3.00;3.00;;;;;27.63;32.25;102237.13;5013902;28;45484;-68
2022/07/17 07:44:12;;;;;;;;;4.67;4.67;;;;;27.75;32.11;102233.41;5022016;28;45468;-68
2022/07/17 07:46:37;;;;;;;;;2.33;2.33;;;;;27.84;30.96;102220.84;5011698;28;45445;-68
2022/07/17 07:49:03;;;;;;;;;3.33;3.33;;;;;27.81;31.58;102231.63;5021014;28;45415;-68
2022/07/17 07:51:29;;;;;;;;;3.00;3.00;;;;;28.00;31.49;102229.75;5013628;28;45377;-67
2022/07/17 07:53:54;;;;;;;;;3.67;3.00;;;;;28.13;31.30;102226.81;5020145;28;45543;-67
2022/07/17 07:56:20;;;;;;;;;4.67;3.00;;;;;28.15;31.27;102219.09;5016420;28;45362;-67
2022/07/17 07:58:45;;;;;;;;;5.00;5.00;;;;;28.33;30.67;102221.09;5019898;28;45488;-69
2022/07/17 08:01:10;;;;;;;;;2.67;2.00;;;;;28.42;31.14;102234.53;5016967;28;45430;-68
2022/07/17 08:03:36;;;;;;;;;3.00;2.33;;;;;28.42;30.53;102228.09;5020079;28;45407;-68
2022/07/17 08:06:01;;;;;;;;;3.00;3.00;;;;;28.43;30.00;102224.19;5019272;28;45466;-68
2022/07/17 08:08:26;;;;;;;;;5.00;5.00;;;;;28.37;30.33;102234.38;5013276;28;45417;-69
2022/07/17 08:10:53;;;;;;;;;4.67;3.67;;;;;28.47;29.81;102234.72;5011187;28;45268;-68
2022/07/17 08:13:18;;;;;;;;;9.00;6.67;;;;;28.55;29.63;102230.75;5021379;28;47014;-68
2022/07/17 08:15:43;;;;;;;;;3.33;3.33;;;;;28.64;29.96;102232.13;5036082;28;45338;-68
2022/07/17 08:18:09;;;;;;;;;5.67;5.67;;;;;28.69;30.22;102226.72;5022184;28;45204;-67
2022/07/17 08:20:34;;;;;;;;;3.00;3.00;;;;;28.87;30.06;102225.88;5020958;28;45415;-67
2022/07/17 08:23:00;;;;;;;;;4.33;3.33;;;;;29.08;29.92;102228.19;5022615;28;45205;-67
2022/07/17 08:25:25;;;;;;;;;2.00;2.00;;;;;29.22;29.66;102232.53;5019630;28;45363;-68
2022/07/17 08:27:51;;;;;;;;;5.33;4.33;;;;;29.35;29.10;102232.38;5023015;28;45795;-67
2022/07/17 08:30:16;;;;;;;;;4.00;4.00;;;;;29.42;28.83;102235.94;5018794;28;45527;-67
2022/07/17 08:32:42;;;;;;;;;5.00;3.00;;;;;29.55;28.57;102236.81;5019389;28;46181;-67
2022/07/17 08:35:08;;;;;;;;;3.67;3.00;;;;;29.46;28.88;102235.44;5021404;28;45395;-68
2022/07/17 08:37:48;;;;;;;;;4.00;2.00;;;;;29.64;28.36;102235.41;5024587;28;45260;-71
2022/07/17 08:40:16;;;;;;;;;3.33;3.00;;;;;29.79;28.31;102235.81;5020622;28;45366;-67
2022/07/17 08:42:42;;;;;;;;;3.00;3.00;;;;;29.88;27.69;102234.34;5013786;28;46178;-68
2022/07/17 08:45:09;;;;;;;;;3.67;3.67;;;;;29.63;28.33;102214.09;5020799;28;45484;-68
2022/07/17 08:47:35;;;;;;;;;4.00;4.00;;;;;29.79;27.44;102224.59;5022328;28;45367;-67
2022/07/17 08:50:02;;;;;;;;;3.00;3.00;;;;;29.84;28.24;102227.53;5020045;28;45523;-66
2022/07/17 08:52:27;;;;;;;;;4.00;4.00;;;;;29.79;27.15;102219.00;5011933;28;45448;-67
2022/07/17 08:54:53;;;;;;;;;5.67;4.00;;;;;29.97;27.75;102216.13;5021134;28;45352;-68
2022/07/17 08:57:18;;;;;;;;;4.00;4.00;;;;;29.83;27.41;102220.22;5021721;28;45427;-68
2022/07/17 08:59:47;;;;;;;;;7.33;4.00;;;;;30.03;27.13;102220.75;5013641;28;45307;-68
2022/07/17 09:02:12;;;;;;;;;4.00;2.67;;;;;30.27;26.97;102220.78;5018995;28;47627;-68
2022/07/17 09:04:39;;;;;;;;;3.00;3.00;;;;;30.53;26.68;102228.72;5023118;28;45326;-69
2022/07/17 09:07:05;;;;;;;;;4.00;2.67;;;;;30.73;25.75;102226.38;5019689;28;45484;-68
2022/07/17 09:09:33;;;;;;;;;3.67;3.67;;;;;30.79;25.69;102227.34;5023444;28;45415;-68
2022/07/17 09:11:59;;;;;;;;;4.33;3.67;;;;;30.99;25.92;102226.91;5017480;28;46107;-68
2022/07/17 09:14:40;;;;;;;;;3.00;3.00;;;;;31.25;25.73;102217.97;5020526;28;45408;-68
2022/07/17 09:17:08;;;;;;;;;4.00;3.00;;;;;31.42;24.92;102224.44;5020490;28;45437;-68
2022/07/17 09:19:42;;;;;;;;;4.00;4.00;;;;;31.49;24.61;102219.53;5022590;28;45193;-68
2022/07/17 09:22:09;;;;;;;;;4.00;4.00;;;;;31.13;24.45;102217.13;5035248;28;46777;-68
2022/07/17 09:24:43;;;;;;;;;4.00;4.00;;;;;31.28;24.60;102212.69;5021919;28;45310;-68
2022/07/17 09:27:11;;;;;;;;;5.00;5.00;;;;;31.69;24.80;102219.09;5021627;28;46347;-68
2022/07/17 09:30:18;;;;;;;;;3.00;3.00;;;;;31.41;23.64;102210.69;5022840;28;45492;-68
2022/07/17 09:32:43;;;;;;;;;5.00;3.00;;;;;31.42;24.55;102221.66;5017340;28;46689;-69
2022/07/17 09:35:10;;;;;;;;;2.00;2.00;;;;;31.57;24.03;102223.88;5020524;28;45314;-68
2022/07/17 09:37:37;;;;;;;;;3.67;3.67;;;;;31.24;23.60;102217.09;5018040;28;45294;-68
2022/07/17 09:40:10;;;;;;;;;6.00;3.00;;;;;31.55;23.58;102224.16;5025252;28;45585;-68
2022/07/17 09:42:35;;;;;;;;;2.33;2.33;;;;;32.13;23.75;102222.97;5015110;28;46347;-68
2022/07/17 09:45:04;;;;;;;;;3.00;3.00;;;;;32.41;22.08;102217.25;5021581;28;45599;-68
2022/07/17 09:47:31;;;;;;;;;2.00;2.00;;;;;32.73;21.62;102219.41;5018386;28;45344;-68
2022/07/17 09:49:58;;;;;;;;;2.67;2.00;;;;;32.98;21.46;102214.09;5021004;28;45252;-67
2022/07/17 09:52:27;;;;;;;;;3.67;3.67;;;;;33.08;21.31;102210.56;5018739;28;45329;-67
2022/07/17 09:54:54;;;;;;;;;2.67;2.33;;;;;33.27;21.99;102208.25;5018662;28;45345;-67
2022/07/17 09:57:24;;;;;;;;;4.00;3.00;;;;;33.45;19.88;102219.19;5019645;28;45359;-68
2022/07/17 09:59:50;;;;;;;;;2.00;2.00;;;;;33.56;20.17;102212.53;5021863;28;45505;-68
2022/07/17 10:02:16;;;;;;;;;3.00;3.00;;;;;33.73;20.39;102218.09;5016889;28;45433;-68
2022/07/17 10:04:42;;;;;;;;;3.00;3.00;;;;;33.70;20.48;102212.94;5022027;28;45306;-69
2022/07/17 10:07:08;;;;;;;;;4.00;4.00;;;;;33.71;20.16;102214.63;5015546;28;45381;-68
2022/07/17 10:09:34;;;;;;;;;2.00;2.00;;;;;34.06;19.64;102217.78;5019894;28;45711;-68
2022/07/17 10:12:00;;;;;;;;;3.00;3.00;;;;;34.27;19.39;102224.47;5017109;28;46417;-68
2022/07/17 10:14:26;;;;;;;;;2.00;2.00;;;;;34.31;18.88;102214.34;5017692;28;45295;-68
2022/07/17 10:16:52;;;;;;;;;2.67;2.67;;;;;34.63;18.23;102225.56;5019646;28;45223;-68
2022/07/17 10:19:22;;;;;;;;;5.00;5.00;;;;;34.19;19.70;102216.50;5021213;28;45264;-68
2022/07/17 10:21:57;;;;;;;;;4.00;2.33;;;;;34.61;18.73;102219.34;5031437;28;48460;-69
2022/07/17 10:24:22;;;;;;;;;3.00;3.00;;;;;34.98;18.54;102217.28;5014782;28;45375;-69
2022/07/17 10:26:49;;;;;;;;;3.33;2.33;;;;;35.27;18.54;102206.41;5021740;28;45304;-69
2022/07/17 10:29:38;;;;;;;;;2.00;2.00;;;;;35.32;17.95;102216.84;5023558;28;45462;-69
2022/07/17 10:32:15;;;;;;;;;7.67;4.33;;;;;35.53;17.66;102222.28;5018189;28;46831;-69
2022/07/17 10:34:46;;;;;;;;;4.00;3.00;;;;;35.84;17.77;102228.00;5026637;28;45323;-69
2022/07/17 10:37:22;;;;;;;;;1.00;1.00;;;;;35.82;18.44;102218.94;5015167;28;45623;-68
2022/07/17 10:40:00;;;;;;;;;3.00;3.00;;;;;36.14;18.29;102222.34;5011230;28;45325;-68
2022/07/17 10:42:47;;;;;;;;;3.33;3.33;;;;;36.66;17.71;102229.66;5016698;28;46190;-69
2022/07/17 10:45:26;;;;;;;;;1.33;1.33;;;;;36.71;17.05;102229.63;5012186;28;45770;-69
2022/07/17 10:47:57;;;;;;;;;2.67;2.67;;;;;36.67;17.35;102222.88;5022698;28;45463;-70
2022/07/17 10:50:42;;;;;;;;;3.67;3.00;;;;;36.92;16.89;102231.25;5022761;28;45277;-69
2022/07/17 10:53:09;;;;;;;;;3.75;3.00;;;;;36.71;16.70;102225.94;5020245;28;45467;-68
2022/07/17 10:55:38;;;;;;;;;2.75;2.75;;;;;36.88;16.05;102218.81;5022189;28;45169;-69
2022/07/17 10:58:13;;;;;;;;;2.00;2.00;;;;;36.38;16.23;102219.78;5023538;28;45325;-69
2022/07/17 11:00:38;;;;;;;;;2.67;2.67;;;;;35.67;16.50;102222.56;5018608;28;45554;-69
2022/07/17 11:03:11;;;;;;;;;2.67;2.67;;;;;35.83;17.19;102221.50;5016086;28;46597;-69
2022/07/17 11:05:37;;;;;;;;;3.67;2.33;;;;;36.40;15.92;102214.66;5020271;28;45636;-69
2022/07/17 11:08:08;;;;;;;;;2.33;2.33;;;;;35.44;16.79;102211.78;5015421;28;45422;-69
2022/07/17 11:10:35;;;;;;;;;2.00;2.00;;;;;36.21;17.09;102217.25;5017144;28;45578;-69
2022/07/17 11:13:12;;;;;;;;;3.67;1.67;;;;;36.61;16.27;102204.13;5022817;28;45339;-69
2022/07/17 11:15:48;;;;;;;;;2.33;1.67;;;;;36.50;15.45;102211.84;5021667;28;45294;-69
2022/07/17 11:18:17;;;;;;;;;2.00;2.00;;;;;35.78;16.70;102212.16;5016517;28;46484;-69
2022/07/17 11:20:57;;;;;;;;;2.00;2.00;;;;;35.75;16.36;102195.75;5020972;28;45376;-69
2022/07/17 11:23:27;;;;;;;;;3.00;3.00;;;;;35.17;16.77;102214.81;5016579;28;45527;-68